createdAt,value
2022-10-18T00:02:06.649Z,13.48
2022-10-18T00:04:33.633Z,13.46
2022-10-18T00:07:00.238Z,13.56
2022-10-18T00:09:27.747Z,13.51
2022-10-18T00:11:55.534Z,13.48
2022-10-18T00:14:22.395Z,13.19
2022-10-18T00:16:49.095Z,13.44
2022-10-18T00:19:15.716Z,13.45
2022-10-18T00:24:11.305Z,13.29
2022-10-18T00:26:37.928Z,13.13
2022-10-18T00:29:05.930Z,13.04
2022-10-18T00:31:35.413Z,13.09
2022-10-18T00:34:13.663Z,13.23
2022-10-18T00:36:40.284Z,13.31
2022-10-18T00:39:08.390Z,13.17
2022-10-18T00:41:37.989Z,13.25
2022-10-18T00:44:27.334Z,13.50
2022-10-18T00:47:02.326Z,13.25
2022-10-18T00:49:35.381Z,13.22
2022-10-18T00:52:26.136Z,12.95
2022-10-18T00:54:54.261Z,12.99
2022-10-18T00:57:21.149Z,13.02
2022-10-18T00:59:48.210Z,13.15
2022-10-18T01:02:18.293Z,13.23
2022-10-18T01:04:46.755Z,13.23
2022-10-18T01:07:25.974Z,13.28
2022-10-18T01:10:01.618Z,13.24
2022-10-18T01:12:49.340Z,13.19
2022-10-18T01:15:20.482Z,13.18
2022-10-18T01:18:19.041Z,13.47
2022-10-18T01:20:51.663Z,13.29
2022-10-18T01:23:31.592Z,13.28
2022-10-18T01:26:42.782Z,13.17
2022-10-18T01:29:30.786Z,13.27
2022-10-18T01:32:12.887Z,13.23
2022-10-18T01:34:43.218Z,13.19
2022-10-18T01:37:14.293Z,12.96
2022-10-18T01:39:44.271Z,12.67
2022-10-18T01:42:14.024Z,12.65
2022-10-18T01:44:42.866Z,12.83
2022-10-18T01:47:11.641Z,12.87
2022-10-18T01:49:38.203Z,12.79
2022-10-18T01:52:05.224Z,12.74
2022-10-18T01:54:36.431Z,12.43
2022-10-18T01:57:09.791Z,12.39
2022-10-18T01:59:45.319Z,12.22
2022-10-18T02:02:42.082Z,12.38
2022-10-18T02:05:24.528Z,12.54
2022-10-18T02:08:12.503Z,12.52
2022-10-18T02:10:50.672Z,12.63
2022-10-18T02:13:21.347Z,12.72
2022-10-18T02:15:51.476Z,12.59
2022-10-18T02:18:42.502Z,12.79
2022-10-18T02:21:13.575Z,12.54
2022-10-18T02:23:40.159Z,12.63
2022-10-18T02:26:07.154Z,12.69
2022-10-18T02:28:34.027Z,12.71
2022-10-18T02:31:15.916Z,12.24
2022-10-18T02:33:56.780Z,12.32
2022-10-18T02:36:32.103Z,12.28
2022-10-18T02:39:04.646Z,12.39
2022-10-18T02:41:32.220Z,12.50
2022-10-18T02:43:58.855Z,12.59
2022-10-18T02:48:57.167Z,12.43
2022-10-18T02:51:23.769Z,12.57
2022-10-18T02:53:50.359Z,12.54
2022-10-18T02:56:16.952Z,12.52
2022-10-18T02:58:43.542Z,12.63
2022-10-18T03:01:10.209Z,12.50
2022-10-18T03:03:36.903Z,12.39
2022-10-18T03:06:03.586Z,12.60
2022-10-18T03:08:30.236Z,12.59
2022-10-18T03:10:56.868Z,12.63
2022-10-18T03:13:23.576Z,12.71
2022-10-18T03:15:50.171Z,12.81
2022-10-18T03:18:16.783Z,12.69
2022-10-18T03:20:43.811Z,12.67
2022-10-18T03:23:10.499Z,12.43
2022-10-18T03:25:37.091Z,12.41
2022-10-18T03:28:03.975Z,12.34
2022-10-18T03:30:30.630Z,12.37
2022-10-18T03:32:57.254Z,12.35
2022-10-18T03:35:23.854Z,12.37
2022-10-18T03:37:50.994Z,12.44
2022-10-18T03:40:18.170Z,12.50
2022-10-18T03:42:44.898Z,12.31
2022-10-18T03:45:11.626Z,12.31
2022-10-18T03:47:38.256Z,12.37
2022-10-18T03:50:05.387Z,12.38
2022-10-18T03:52:32.182Z,12.34
2022-10-18T03:54:59.011Z,12.22
2022-10-18T03:57:25.675Z,12.23
2022-10-18T03:59:52.259Z,12.32
2022-10-18T04:02:19.047Z,12.31
2022-10-18T04:04:45.678Z,12.34
2022-10-18T04:07:12.346Z,12.31
2022-10-18T04:09:38.930Z,12.33
2022-10-18T04:12:05.695Z,12.32
2022-10-18T04:14:32.274Z,12.32
2022-10-18T04:16:58.880Z,12.21
2022-10-18T04:19:25.447Z,12.21
2022-10-18T04:21:52.046Z,12.23
2022-10-18T04:24:18.629Z,12.00
2022-10-18T04:26:45.482Z,11.95
2022-10-18T04:29:12.351Z,11.92
2022-10-18T04:31:39.002Z,11.86
2022-10-18T04:34:05.563Z,11.89
2022-10-18T04:36:32.218Z,11.92
2022-10-18T04:38:58.778Z,11.97
2022-10-18T04:41:25.485Z,12.08
2022-10-18T04:43:52.056Z,12.06
2022-10-18T04:46:18.756Z,12.14
2022-10-18T04:48:45.327Z,12.14
2022-10-18T04:51:11.982Z,12.11
2022-10-18T04:53:38.716Z,11.92
2022-10-18T04:56:05.708Z,11.93
2022-10-18T04:58:32.810Z,12.05
2022-10-18T05:00:59.494Z,12.10
2022-10-18T05:03:26.093Z,11.63
2022-10-18T05:06:08.032Z,11.79
2022-10-18T05:08:35.987Z,11.87
2022-10-18T05:11:03.985Z,11.86
2022-10-18T05:13:31.071Z,11.96
2022-10-18T05:15:59.529Z,12.01
2022-10-18T05:18:26.352Z,12.04
2022-10-18T05:20:52.955Z,11.89
2022-10-18T05:23:19.563Z,11.85
2022-10-18T05:25:46.280Z,11.72
2022-10-18T05:28:34.694Z,11.68
2022-10-18T05:31:04.378Z,11.88
2022-10-18T05:33:31.012Z,11.86
2022-10-18T05:35:57.938Z,11.70
2022-10-18T05:38:24.992Z,11.81
2022-10-18T05:40:52.123Z,11.72
2022-10-18T05:43:18.795Z,11.61
2022-10-18T05:45:51.537Z,11.72
2022-10-18T05:48:18.654Z,11.76
2022-10-18T05:50:45.811Z,11.83
2022-10-18T05:53:24.680Z,11.73
2022-10-18T05:56:02.741Z,11.84
2022-10-18T05:58:29.390Z,11.85
2022-10-18T06:01:01.511Z,11.92
2022-10-18T06:03:30.340Z,11.96
2022-10-18T06:06:05.347Z,12.01
2022-10-18T06:08:32.688Z,12.03
2022-10-18T06:10:59.709Z,12.10
2022-10-18T06:13:26.381Z,12.17
2022-10-18T06:15:57.511Z,12.33
2022-10-18T06:18:24.151Z,12.37
2022-10-18T06:20:56.970Z,12.49
2022-10-18T06:23:23.555Z,12.45
2022-10-18T06:25:50.157Z,12.46
2022-10-18T06:28:17.278Z,12.55
2022-10-18T06:30:44.570Z,12.62
2022-10-18T06:33:12.116Z,12.64
2022-10-18T06:35:38.683Z,12.78
2022-10-18T06:38:06.321Z,12.89
2022-10-18T06:40:37.956Z,12.98
2022-10-18T06:43:20.007Z,12.92
2022-10-18T06:45:47.046Z,12.92
2022-10-18T06:48:13.642Z,13.15
2022-10-18T06:50:40.314Z,13.24
2022-10-18T06:53:09.036Z,13.37
2022-10-18T06:55:36.252Z,13.47
2022-10-18T06:58:03.016Z,13.39
2022-10-18T07:00:29.757Z,13.13
2022-10-18T07:02:58.310Z,13.35
2022-10-18T07:05:25.126Z,13.72
2022-10-18T07:07:54.336Z,13.89
2022-10-18T07:10:23.916Z,13.91
2022-10-18T07:12:53.445Z,13.85
2022-10-18T07:15:24.188Z,13.98
2022-10-18T07:17:50.938Z,14.06
2022-10-18T07:20:17.789Z,14.11
2022-10-18T07:22:44.374Z,13.96
2022-10-18T07:25:11.161Z,14.16
2022-10-18T07:27:39.917Z,14.34
2022-10-18T07:30:08.340Z,14.39
2022-10-18T07:32:35.019Z,14.46
2022-10-18T07:35:02.541Z,14.41
2022-10-18T07:37:30.274Z,14.65
2022-10-18T07:39:57.036Z,14.97
2022-10-18T07:42:23.691Z,15.06
2022-10-18T07:44:50.653Z,15.27
2022-10-18T07:47:17.331Z,15.35
2022-10-18T07:49:44.052Z,15.56
2022-10-18T07:52:11.255Z,15.81
2022-10-18T07:54:37.875Z,15.93
2022-10-18T07:57:05.108Z,16.01
2022-10-18T07:59:31.677Z,16.18
2022-10-18T08:01:58.302Z,16.28
2022-10-18T08:04:24.950Z,16.51
2022-10-18T08:06:51.862Z,16.68
2022-10-18T08:09:18.448Z,16.87
2022-10-18T08:11:45.022Z,17.02
2022-10-18T08:14:11.643Z,17.33
2022-10-18T08:16:38.223Z,17.61
2022-10-18T08:19:04.850Z,17.79
2022-10-18T08:21:31.928Z,17.90
2022-10-18T08:23:58.539Z,18.18
2022-10-18T08:26:25.166Z,18.35
2022-10-18T08:29:10.386Z,18.52
2022-10-18T08:31:38.671Z,19.07
2022-10-18T08:34:05.249Z,19.13
2022-10-18T08:36:31.972Z,19.09
2022-10-18T08:38:58.765Z,18.96
2022-10-18T08:41:37.321Z,19.48
2022-10-18T08:44:30.873Z,19.82
2022-10-18T08:47:11.568Z,20.13
2022-10-18T08:49:47.609Z,20.23
2022-10-18T08:52:28.406Z,20.46
2022-10-18T08:55:04.230Z,20.81
2022-10-18T08:57:32.836Z,21.09
2022-10-18T08:59:59.868Z,21.38
2022-10-18T09:02:44.975Z,21.58
2022-10-18T09:05:29.563Z,21.57
2022-10-18T09:08:32.947Z,21.86
2022-10-18T09:11:36.648Z,22.18
2022-10-18T09:14:10.899Z,22.12
2022-10-18T09:16:37.443Z,22.26
2022-10-18T09:19:25.323Z,22.84
2022-10-18T09:21:55.340Z,23.08
2022-10-18T09:24:40.214Z,23.43
2022-10-18T09:27:18.598Z,23.23
2022-10-18T09:30:15.540Z,22.92
2022-10-18T09:32:54.803Z,22.61
2022-10-18T09:35:29.828Z,23.03
2022-10-18T09:38:04.298Z,23.07
2022-10-18T09:40:35.431Z,23.16
2022-10-18T09:43:08.358Z,23.51
2022-10-18T09:45:39.118Z,23.77
2022-10-18T09:48:29.026Z,24.26
2022-10-18T09:51:04.479Z,24.43
2022-10-18T09:53:47.567Z,24.53
2022-10-18T09:56:20.803Z,24.49
2022-10-18T09:58:51.446Z,25.01
2022-10-18T10:01:30.783Z,24.78
2022-10-18T10:03:57.747Z,24.74
2022-10-18T10:06:38.718Z,25.07
2022-10-18T10:09:14.108Z,25.21
2022-10-18T10:11:47.183Z,25.79
2022-10-18T10:14:28.826Z,26.24
2022-10-18T10:17:04.070Z,26.54
2022-10-18T10:19:41.084Z,27.00
2022-10-18T10:22:12.114Z,26.62
2022-10-18T10:24:41.491Z,26.43
2022-10-18T10:27:21.173Z,26.53
2022-10-18T10:29:47.778Z,26.97
2022-10-18T10:32:17.243Z,28.17
2022-10-18T10:34:45.041Z,28.60
2022-10-18T10:37:36.619Z,27.43
2022-10-18T10:40:28.401Z,26.84
2022-10-18T10:43:13.187Z,27.10
2022-10-18T10:46:10.071Z,26.78
2022-10-18T10:48:47.223Z,26.72
2022-10-18T10:51:16.166Z,26.83
2022-10-18T10:53:57.348Z,26.93
2022-10-18T10:56:30.945Z,27.13
2022-10-18T10:59:08.902Z,27.04
2022-10-18T11:01:36.567Z,26.88
2022-10-18T11:04:24.920Z,26.55
2022-10-18T11:07:05.086Z,27.29
2022-10-18T11:09:53.277Z,27.75
2022-10-18T11:12:25.838Z,28.04
2022-10-18T11:15:32.665Z,28.40
2022-10-18T11:18:23.163Z,28.16
2022-10-18T11:20:57.098Z,28.43
2022-10-18T11:23:30.934Z,29.13
2022-10-18T11:26:12.861Z,29.22
2022-10-18T11:28:51.599Z,29.18
2022-10-18T11:31:35.612Z,29.00
2022-10-18T11:34:10.339Z,28.87
2022-10-18T11:37:27.135Z,28.88
2022-10-18T11:40:26.850Z,29.10
2022-10-18T11:43:11.610Z,29.31
2022-10-18T11:45:50.459Z,30.04
2022-10-18T11:48:35.467Z,30.14
2022-10-18T11:51:02.082Z,30.35
2022-10-18T11:53:48.369Z,30.28
2022-10-18T11:56:42.650Z,30.64
2022-10-18T11:59:32.251Z,31.46
2022-10-18T12:02:27.738Z,30.96
2022-10-18T12:07:59.111Z,29.46
2022-10-18T12:10:44.105Z,29.68
2022-10-18T12:13:35.336Z,29.81
2022-10-18T12:16:07.166Z,29.78
2022-10-18T12:18:36.148Z,29.52
2022-10-18T12:21:05.578Z,29.50
2022-10-18T12:23:38.162Z,29.08
2022-10-18T12:26:07.908Z,27.14
2022-10-18T12:28:43.771Z,27.65
2022-10-18T12:31:40.042Z,28.18
2022-10-18T12:34:21.935Z,28.39
2022-10-18T12:37:08.756Z,28.28
2022-10-18T12:39:50.435Z,28.29
2022-10-18T12:42:31.968Z,28.56
2022-10-18T12:45:13.889Z,28.48
2022-10-18T12:47:40.789Z,28.36
2022-10-18T12:50:26.924Z,28.54
2022-10-18T12:53:19.212Z,29.34
2022-10-18T12:55:51.725Z,29.81
2022-10-18T12:58:28.531Z,28.77
2022-10-18T13:00:57.423Z,29.22
2022-10-18T13:03:26.966Z,29.88
2022-10-18T13:06:00.708Z,30.08
2022-10-18T13:08:28.460Z,30.49
2022-10-18T13:11:10.231Z,30.14
2022-10-18T13:13:43.869Z,29.74
2022-10-18T13:16:42.959Z,29.82
2022-10-18T13:19:18.475Z,29.07
2022-10-18T13:22:14.175Z,29.00
2022-10-18T13:25:01.903Z,29.01
2022-10-18T13:27:36.774Z,28.80
2022-10-18T13:30:18.562Z,28.44
2022-10-18T13:33:03.853Z,27.98
2022-10-18T13:35:58.465Z,27.30
2022-10-18T13:38:49.763Z,26.78
2022-10-18T13:41:19.726Z,26.82
2022-10-18T13:43:56.150Z,26.87
2022-10-18T13:46:45.735Z,26.81
2022-10-18T13:49:39.812Z,27.00
2022-10-18T13:52:25.067Z,26.72
2022-10-18T13:55:14.730Z,26.47
2022-10-18T13:58:07.906Z,26.56
2022-10-18T14:00:56.272Z,26.57
2022-10-18T14:03:56.776Z,26.66
2022-10-18T14:06:29.061Z,26.69
2022-10-18T14:09:09.398Z,26.64
2022-10-18T14:12:14.164Z,26.43
2022-10-18T14:14:55.808Z,26.31
2022-10-18T14:17:51.795Z,26.33
2022-10-18T14:20:32.741Z,26.32
2022-10-18T14:23:08.071Z,26.15
2022-10-18T14:25:36.817Z,26.01
2022-10-18T14:28:16.845Z,25.92
2022-10-18T14:31:07.274Z,26.01
2022-10-18T14:33:38.008Z,25.72
2022-10-18T14:36:15.821Z,26.00
2022-10-18T14:39:06.829Z,26.13
2022-10-18T14:41:47.398Z,26.05
2022-10-18T14:44:18.580Z,26.06
2022-10-18T14:46:52.023Z,25.97
2022-10-18T14:49:20.548Z,26.04
2022-10-18T14:51:56.318Z,26.17
2022-10-18T14:54:31.574Z,26.25
2022-10-18T14:57:00.541Z,26.18
2022-10-18T14:59:29.648Z,26.23
2022-10-18T15:02:00.024Z,26.08
2022-10-18T15:04:33.201Z,25.70
2022-10-18T15:07:05.917Z,25.76
2022-10-18T15:09:35.435Z,25.75
2022-10-18T15:12:07.106Z,25.32
2022-10-18T15:14:34.840Z,24.91
2022-10-18T15:17:26.068Z,24.89
2022-10-18T15:19:59.365Z,24.89
2022-10-18T15:22:33.318Z,24.93
2022-10-18T15:25:11.338Z,24.83
2022-10-18T15:27:39.621Z,24.79
2022-10-18T15:30:17.763Z,25.01
2022-10-18T15:32:51.102Z,25.33
2022-10-18T15:35:26.124Z,25.36
2022-10-18T15:37:54.092Z,25.52
2022-10-18T15:40:23.488Z,25.63
2022-10-18T15:42:52.298Z,25.68
2022-10-18T15:45:24.680Z,25.66
2022-10-18T15:48:10.763Z,25.66
2022-10-18T15:50:41.060Z,25.68
2022-10-18T15:53:23.007Z,25.84
2022-10-18T15:56:31.345Z,25.89
2022-10-18T15:58:59.921Z,25.56
2022-10-18T16:01:43.299Z,25.77
2022-10-18T16:04:30.728Z,25.82
2022-10-18T16:06:58.195Z,25.63
2022-10-18T16:09:27.513Z,25.56
2022-10-18T16:11:57.274Z,25.11
2022-10-18T16:14:25.632Z,25.10
2022-10-18T16:16:55.830Z,24.89
2022-10-18T16:19:22.962Z,24.83
2022-10-18T16:21:51.140Z,24.88
2022-10-18T16:24:18.836Z,24.66
2022-10-18T16:26:46.054Z,24.54
2022-10-18T16:29:21.617Z,24.54
2022-10-18T16:31:48.215Z,24.44
2022-10-18T16:34:14.925Z,24.30
2022-10-18T16:36:41.907Z,24.24
2022-10-18T16:39:15.262Z,24.22
2022-10-18T16:41:41.870Z,23.94
2022-10-18T16:44:08.545Z,23.87
2022-10-18T16:46:36.220Z,23.52
2022-10-18T16:49:03.499Z,23.62
2022-10-18T16:51:30.193Z,23.51
2022-10-18T16:53:57.100Z,23.47
2022-10-18T16:56:32.426Z,23.22
2022-10-18T16:58:59.835Z,23.00
2022-10-18T17:01:27.372Z,23.01
2022-10-18T17:03:55.310Z,22.95
2022-10-18T17:06:25.855Z,22.97
2022-10-18T17:08:53.907Z,22.89
2022-10-18T17:11:21.816Z,22.85
2022-10-18T17:13:48.488Z,22.79
2022-10-18T17:16:23.242Z,22.84
2022-10-18T17:18:49.978Z,22.66
2022-10-18T17:21:16.788Z,22.60
2022-10-18T17:23:43.364Z,22.58
2022-10-18T17:26:28.200Z,22.47
2022-10-18T17:28:58.382Z,22.35
2022-10-18T17:31:25.348Z,22.21
2022-10-18T17:33:54.679Z,22.16
2022-10-18T17:36:21.850Z,22.04
2022-10-18T17:38:52.068Z,22.19
2022-10-18T17:41:18.671Z,22.00
2022-10-18T17:43:45.393Z,21.98
2022-10-18T17:46:13.249Z,21.92
2022-10-18T17:48:41.021Z,21.96
2022-10-18T17:51:09.483Z,21.98
2022-10-18T17:53:36.434Z,21.92
2022-10-18T17:56:04.616Z,21.90
2022-10-18T17:58:32.261Z,21.74
2022-10-18T18:01:12.824Z,21.77
2022-10-18T18:03:39.889Z,21.66
2022-10-18T18:06:13.556Z,21.64
2022-10-18T18:08:40.149Z,21.50
2022-10-18T18:11:07.156Z,21.57
2022-10-18T18:13:33.803Z,21.61
2022-10-18T18:16:14.129Z,21.59
2022-10-18T18:18:41.141Z,21.51
2022-10-18T18:21:07.862Z,21.46
2022-10-18T18:23:34.477Z,21.47
2022-10-18T18:26:01.114Z,21.41
2022-10-18T18:28:27.859Z,21.18
2022-10-18T18:30:54.476Z,21.15
2022-10-18T18:33:21.187Z,21.06
2022-10-18T18:35:58.182Z,21.10
2022-10-18T18:38:25.602Z,21.04
2022-10-18T18:41:10.743Z,21.24
2022-10-18T18:43:38.730Z,20.98
2022-10-18T18:46:05.840Z,21.02
2022-10-18T18:48:34.216Z,21.07
2022-10-18T18:51:01.932Z,20.96
2022-10-18T18:53:29.752Z,20.91
2022-10-18T18:56:08.060Z,20.98
2022-10-18T18:58:36.551Z,20.75
2022-10-18T19:01:17.966Z,20.75
2022-10-18T19:03:47.444Z,20.31
2022-10-18T19:06:19.690Z,20.34
2022-10-18T19:08:46.891Z,20.30
2022-10-18T19:11:16.743Z,20.17
2022-10-18T19:13:43.547Z,20.07
2022-10-18T19:16:26.605Z,20.17
2022-10-18T19:18:58.929Z,20.12
2022-10-18T19:21:28.963Z,19.95
2022-10-18T19:23:56.582Z,19.66
2022-10-18T19:26:45.393Z,19.74
2022-10-18T19:29:14.314Z,19.85
2022-10-18T19:31:41.253Z,19.93
2022-10-18T19:34:10.574Z,19.87
2022-10-18T19:36:38.141Z,19.60
2022-10-18T19:39:07.121Z,19.57
2022-10-18T19:41:33.768Z,19.47
2022-10-18T19:44:00.563Z,19.53
2022-10-18T19:46:27.290Z,19.51
2022-10-18T19:48:54.323Z,19.29
2022-10-18T19:51:25.521Z,19.16
2022-10-18T19:53:55.918Z,19.05
2022-10-18T19:56:24.429Z,18.92
2022-10-18T19:58:51.271Z,18.96
2022-10-18T20:01:18.647Z,18.86
2022-10-18T20:03:46.015Z,18.79
2022-10-18T20:06:13.196Z,18.87
2022-10-18T20:08:39.996Z,19.17
2022-10-18T20:11:12.740Z,19.37
2022-10-18T20:13:40.106Z,19.47
2022-10-18T20:16:09.024Z,19.43
2022-10-18T20:18:36.607Z,19.52
2022-10-18T20:21:07.594Z,19.52
2022-10-18T20:23:39.243Z,19.55
2022-10-18T20:26:07.148Z,19.66
2022-10-18T20:28:34.607Z,19.75
2022-10-18T20:31:07.447Z,19.68
2022-10-18T20:33:35.296Z,19.86
2022-10-18T20:36:04.088Z,19.80
2022-10-18T20:38:32.009Z,19.87
2022-10-18T20:41:03.455Z,19.47
2022-10-18T20:43:30.127Z,19.52
2022-10-18T20:45:58.323Z,19.72
2022-10-18T20:48:26.148Z,19.74
2022-10-18T20:50:52.835Z,19.78
2022-10-18T20:53:20.099Z,19.85
2022-10-18T20:55:46.692Z,19.80
2022-10-18T20:58:13.305Z,19.81
2022-10-18T21:00:39.924Z,19.79
2022-10-18T21:03:06.581Z,19.87
2022-10-18T21:05:33.401Z,19.91
2022-10-18T21:07:59.967Z,19.76
2022-10-18T21:10:26.605Z,19.87
2022-10-18T21:12:53.534Z,19.93
2022-10-18T21:15:20.150Z,19.84
2022-10-18T21:17:51.483Z,19.72
2022-10-18T21:20:18.978Z,19.72
2022-10-18T21:22:45.645Z,19.79
2022-10-18T21:25:12.397Z,19.50
2022-10-18T21:27:39.551Z,19.59
2022-10-18T21:30:06.529Z,18.91
2022-10-18T21:32:33.289Z,19.30
2022-10-18T21:35:00.139Z,19.40
2022-10-18T21:37:26.747Z,19.34
2022-10-18T21:39:53.334Z,19.37
2022-10-18T21:42:19.928Z,19.37
2022-10-18T21:44:46.664Z,19.25
2022-10-18T21:47:13.282Z,19.19
2022-10-18T21:49:39.842Z,19.29
2022-10-18T21:52:06.650Z,19.11
2022-10-18T21:54:33.268Z,19.16
2022-10-18T21:56:59.843Z,19.13
2022-10-18T21:59:26.474Z,18.99
2022-10-18T22:01:53.081Z,19.11
2022-10-18T22:04:24.730Z,19.24
2022-10-18T22:06:51.977Z,18.94
2022-10-18T22:09:19.974Z,18.73
2022-10-18T22:11:50.405Z,18.95
2022-10-18T22:14:17.147Z,18.88
2022-10-18T22:16:43.742Z,18.96
2022-10-18T22:19:10.626Z,19.07
2022-10-18T22:21:37.228Z,18.97
2022-10-18T22:24:06.888Z,19.03
2022-10-18T22:26:40.251Z,19.04
2022-10-18T22:29:10.604Z,18.90
2022-10-18T22:31:39.663Z,18.92
2022-10-18T22:34:10.462Z,18.91
2022-10-18T22:36:37.231Z,18.83
2022-10-18T22:39:08.204Z,18.95
2022-10-18T22:41:35.333Z,18.98
2022-10-18T22:44:03.833Z,19.05
2022-10-18T22:46:31.588Z,18.96
2022-10-18T22:48:58.233Z,19.05
2022-10-18T22:51:24.940Z,19.06
2022-10-18T22:53:51.741Z,18.97
2022-10-18T22:56:21.065Z,18.76
2022-10-18T22:58:50.775Z,18.53
2022-10-18T23:01:20.797Z,18.26
2022-10-18T23:03:55.515Z,18.36
2022-10-18T23:06:25.327Z,18.51
2022-10-18T23:08:53.536Z,18.39
2022-10-18T23:11:20.751Z,18.63
2022-10-18T23:13:47.905Z,18.57
2022-10-18T23:16:14.879Z,18.63
2022-10-18T23:18:42.887Z,18.60
2022-10-18T23:21:11.956Z,18.53
2022-10-18T23:23:40.906Z,18.73
2022-10-18T23:26:10.811Z,18.75
2022-10-18T23:28:40.183Z,18.68
2022-10-18T23:31:13.756Z,18.81
2022-10-18T23:33:41.252Z,18.74
2022-10-18T23:36:08.958Z,18.84
2022-10-18T23:38:36.864Z,18.83
2022-10-18T23:41:08.231Z,18.77
2022-10-18T23:43:35.436Z,18.84
2022-10-18T23:46:02.641Z,18.86
2022-10-18T23:48:29.295Z,18.72
2022-10-18T23:50:56.060Z,18.83
2022-10-18T23:53:23.251Z,18.82
2022-10-18T23:55:54.399Z,18.90
2022-10-18T23:58:20.985Z,18.82
